Date,TemperatureHighF,TemperatureAvgF,TemperatureLowF,DewpointHighF,DewpointAvgF,DewpointLowF,HumidityHigh,HumidityAvg,HumidityLow,PressureMaxIn,PressureMinIn,WindSpeedMaxMPH,WindSpeedAvgMPH,GustSpeedMaxMPH,PrecipitationSumIn
2013-7-1,79.6,69.7,63.0,65.4,28.6,5.7,62,23,1,29.99,29.85,4,1,4,0.92
2013-7-2,83.5,70.2,62.1,66.8,25.8,5.0,60,19,1,30.08,29.98,4,1,6,0.38
2013-7-3,92.9,75.7,63.9,77.0,38.0,-2.0,65,29,1,30.10,30.01,6,1,7,0.63
2013-7-4,94.3,77.2,68.0,77.0,32.0,9.5,65,20,1,30.11,29.97,6,1,8,0.31
2013-7-5,92.9,77.0,67.3,76.7,33.6,9.0,65,22,1,30.07,29.97,7,1,10,0.23
2013-7-6,90.9,76.1,63.9,74.1,45.7,9.6,71,39,1,30.00,29.91,8,1,8,0.03
2013-7-7,88.4,73.9,62.3,75.4,45.1,5.1,70,42,1,29.97,29.82,6,0,6,0.02
2013-7-8,86.2,73.4,68.0,74.0,31.7,9.5,68,24,1,29.97,29.85,0,0,0,1.92
2013-7-9,87.5,74.5,67.7,74.4,43.7,9.3,69,38,1,30.01,29.92,0,0,0,0.00
2013-7-10,79.6,72.8,69.1,65.4,37.3,10.2,63,31,1,29.94,29.67,0,0,0,1.31
2013-7-11,82.1,71.9,63.2,70.4,39.1,8.8,72,37,1,29.93,29.65,0,0,0,0.05
2013-7-12,85.1,70.0,56.9,68.8,43.5,0.8,71,43,1,30.13,29.93,0,0,0,0.00
2013-7-13,87.3,70.6,60.8,72.1,44.8,4.0,71,45,1,30.23,30.13,0,0,0,0.00
2013-7-14,89.8,74.6,63.7,76.0,46.1,5.8,71,42,1,30.23,30.13,0,0,0,0.00
2013-7-15,94.3,76.8,65.3,74.1,47.2,7.4,71,40,1,30.16,30.04,0,0,0,0.00
2013-7-16,93.4,75.7,61.6,73.2,52.7,4.7,71,48,2,30.13,30.06,0,0,0,0.00
2013-7-17,97.6,78.5,62.8,78.1,53.6,5.8,69,46,1,30.12,29.88,0,0,0,0.00
2013-7-18,93.8,76.7,69.8,76.3,40.8,0.3,69,33,1,29.96,29.86,0,0,0,0.76
2013-7-19,95.6,79.8,68.8,77.9,46.0,10.1,69,35,1,29.87,29.59,0,0,0,0.12
2013-7-20,87.8,74.2,62.8,72.8,43.6,5.5,70,39,1,29.75,29.57,0,0,0,0.01
2013-7-21,85.1,68.8,59.2,66.1,44.2,2.7,71,46,1,29.94,29.75,0,0,0,0.01
2013-7-22,83.5,69.1,54.0,70.2,49.6,-1.1,71,53,3,29.96,29.79,0,0,0,0.00
2013-7-23,83.7,69.5,64.1,71.6,42.2,6.7,69,42,3,29.79,29.48,0,0,0,1.60
2013-7-24,73.8,64.1,52.2,61.4,33.7,5.7,74,40,1,29.96,29.51,0,0,0,0.01
2013-7-25,75.6,60.7,46.4,61.1,42.9,-7.2,72,55,1,30.04,29.95,0,0,0,0.00
2013-7-26,74.0,63.0,54.5,61.5,45.6,3.0,71,55,12,30.02,29.91,0,0,0,0.00
2013-7-27,84.1,66.7,53.8,67.1,42.8,-7.2,71,46,7,29.98,29.88,0,0,0,0.00
2013-7-28,79.9,68.1,58.1,67.6,43.0,2.0,71,46,1,29.93,29.84,0,0,0,0.00
2013-7-29,84.2,71.3,60.7,67.1,43.8,5.2,72,43,1,29.99,29.87,0,0,0,0.01
2013-7-30,77.8,65.0,53.5,60.5,47.5,-5.7,72,55,8,30.04,29.97,0,0,0,0.00
2013-7-31,81.7,65.4,51.8,64.6,43.8,-1.9,71,49,6,30.07,29.93,0,0,0,0.00